Skip Navigation Links
NOAA logo - Click to go to the NOAA homepage
NOAA's National Weather Service
Alaska Aviation Weather Unit
  NWS logo - Click to go to the NWS homepage
Left Navbar Graphic     21 AKDT = 05 GMT

   
NOAA is celebrating 200 years of science, service, and stewardship. Visit the NOAA 200th celebration Web site to learn more.
USA.gov is the U.S. Government's official Web portal to all Federal, state and local government Web resources and services.
Facebook
NWS on Facebook

Important Change Regarding the AAWU Web Presence

 

Over the last several months, the AAWU has been working to navigate its webpages to a nationally supported server. Security, as well as other needs, have necessitated the change.  In the process, we have made an effort to enhance the functionality of our website, as well as some of our products. As of June 27, 2017, aawu.arh.noaa.gov will be discontinued. The new AAWU web address is weather.gov/aawu. It is now live and will run in-parallel with the old site until it is discontinued. Please send any feedback or questions regarding the new webpages to nws.ar.aawu.webauthors@noaa.gov.  Thank you for your patience during this time of transition.
AAWU Home :: Display TAF Add Bookmark
TAF PAHN 260428Z 2604/2624 10008G18KT P6SM VCSH SKC
     FM260600 VRB03KT P6SM VCSH BKN050 BKN100
     FM260900 30006KT P6SM FEW015 BKN050
     FM261800 VRB04KT P6SM SCT050
     FM262100 13008KT P6SM SCT050
      AMD LTD TO CLD VIS AND WIND=
METAR PAHN 252354Z AUTO 13009KT 10SM CLR 17/10 A2992 RMK AO2 SLP133
 T01720100 10183 20139 58009 TSNO=

METAR PAHN 260054Z AUTO 12007KT 10SM CLR 16/11 A2991 RMK AO2 SLP129
     T01610106 TSNO=

METAR PAHN 260154Z AUTO 12009G16KT 10SM CLR 17/10 A2990 RMK AO2 SLP126
     T01720100 TSNO=

METAR PAHN 260254Z AUTO 12012G19KT 10SM CLR 16/09 A2990 RMK AO2 SLP128
     T01610094 55005 TSNO=

METAR PAHN 260354Z AUTO 09008G18KT 060V130 10SM CLR 15/11 A2990 RMK
 AO2 SLP129 T01500106 TSNO=

METAR PAHN 260454Z AUTO 09009KT 10SM CLR 14/10 A2991 RMK AO2 SLP130
     T01390100 TSNO=


NOAA's National Weather Service
Alaska Aviation Weather Unit
6930 Sand Lake Road
Anchorage, AK 99502-1845
Disclaimer
Credits
Glossary
Privacy Policy
About Us
Career Opportunities
Contact AAWU Internet Services Site last modified: April, 17th 2012